createdAt,value
2018-12-24T00:00:40.916Z,27.83
2018-12-24T00:01:18.235Z,27.83
2018-12-24T00:01:56.069Z,27.84
2018-12-24T00:02:33.510Z,27.86
2018-12-24T00:03:33.870Z,27.88
2018-12-24T00:04:39.300Z,27.88
2018-12-24T00:05:15.919Z,27.89
2018-12-24T00:05:52.673Z,27.91
2018-12-24T00:06:29.425Z,27.93
2018-12-24T00:07:06.016Z,27.96
2018-12-24T00:07:42.710Z,27.99
2018-12-24T00:08:19.125Z,28.00
2018-12-24T00:09:13.957Z,28.01
2018-12-24T00:09:52.025Z,28.02
2018-12-24T00:10:28.664Z,28.05
2018-12-24T00:11:43.650Z,28.06
2018-12-24T00:12:30.479Z,28.09
2018-12-24T00:14:45.252Z,28.13
2018-12-24T00:15:21.950Z,28.14
2018-12-24T00:16:19.505Z,28.15
2018-12-24T00:16:56.518Z,28.17
2018-12-24T00:17:43.756Z,28.18
2018-12-24T00:18:59.142Z,28.20
2018-12-24T00:19:36.093Z,28.22
2018-12-24T00:20:33.078Z,28.24
2018-12-24T00:22:21.748Z,28.28
2018-12-24T00:22:58.426Z,28.30
2018-12-24T00:23:35.097Z,28.33
2018-12-24T00:24:31.561Z,28.35
2018-12-24T00:25:08.945Z,28.38
2018-12-24T00:26:15.294Z,28.40
2018-12-24T00:26:51.884Z,28.42
2018-12-24T00:28:06.867Z,28.45
2018-12-24T00:28:43.427Z,28.48
2018-12-24T00:31:49.597Z,28.57
2018-12-24T00:32:26.122Z,28.61
2018-12-24T00:33:02.771Z,28.64
2018-12-24T00:33:39.488Z,28.66
2018-12-24T00:34:16.221Z,28.70
2018-12-24T00:35:14.979Z,28.71
2018-12-24T00:35:51.521Z,28.74
2018-12-24T00:36:28.164Z,28.77
2018-12-24T00:37:43.124Z,28.81
2018-12-24T00:38:49.137Z,28.83
2018-12-24T00:39:25.688Z,28.88
2018-12-24T00:40:02.432Z,28.92
2018-12-24T00:40:39.169Z,28.93
2018-12-24T00:41:16.330Z,28.96
2018-12-24T00:42:31.533Z,28.98
2018-12-24T00:43:08.510Z,29.00
2018-12-24T00:43:45.107Z,29.04
2018-12-24T00:44:22.248Z,29.07
2018-12-24T00:46:45.589Z,29.11
2018-12-24T00:47:22.306Z,29.14
2018-12-24T00:47:58.977Z,29.19
2018-12-24T00:48:35.797Z,29.21
2018-12-24T00:49:32.559Z,29.23
2018-12-24T00:50:09.294Z,29.26
2018-12-24T00:50:46.304Z,29.28
2018-12-24T00:54:15.704Z,29.38
2018-12-24T00:56:00.575Z,29.49
2018-12-24T00:56:37.483Z,29.55
2018-12-24T00:57:14.278Z,29.58
2018-12-24T00:59:34.264Z,29.67
2018-12-24T01:00:30.698Z,29.74
2018-12-24T01:01:37.023Z,29.78
2018-12-24T01:03:30.258Z,29.84
2018-12-24T01:04:07.007Z,29.90
2018-12-24T01:04:44.716Z,29.93
2018-12-24T01:05:39.686Z,29.99
2018-12-24T01:06:37.166Z,29.99
2018-12-24T01:07:16.537Z,30.03
2018-12-24T01:08:59.902Z,30.09
2018-12-24T01:12:40.017Z,30.24
2018-12-24T01:13:36.544Z,30.32
2018-12-24T01:14:44.538Z,30.36
2018-12-24T01:15:31.695Z,30.42
2018-12-24T01:16:08.352Z,30.42
2018-12-24T01:17:03.459Z,30.45
2018-12-24T01:17:58.447Z,30.49
2018-12-24T01:19:04.697Z,30.49
2018-12-24T01:19:51.921Z,30.59
2018-12-24T01:20:28.580Z,30.59
2018-12-24T01:22:23.326Z,30.70
2018-12-24T01:23:00.308Z,30.74
2018-12-24T01:24:57.229Z,30.82
2018-12-24T01:25:34.104Z,30.82
2018-12-24T01:27:26.733Z,30.89
2018-12-24T01:28:13.401Z,30.96
2018-12-24T01:29:01.856Z,31.01
2018-12-24T01:29:48.822Z,30.97
2018-12-24T01:30:35.461Z,31.04
2018-12-24T01:31:22.074Z,31.03
2018-12-24T01:32:08.805Z,31.08
2018-12-24T01:32:56.020Z,31.10
2018-12-24T01:33:50.857Z,31.10
2018-12-24T01:34:27.525Z,31.07
2018-12-24T01:35:04.423Z,31.10
2018-12-24T01:36:01.014Z,31.10
2018-12-24T01:38:46.383Z,31.18
2018-12-24T01:39:59.768Z,31.15
2018-12-24T01:40:46.160Z,31.32
2018-12-24T01:41:32.998Z,31.34
2018-12-24T01:42:48.086Z,31.34
2018-12-24T01:43:54.633Z,31.34
2018-12-24T01:44:41.116Z,31.43
2018-12-24T01:47:12.544Z,31.55
2018-12-24T01:47:58.873Z,31.48
2018-12-24T01:49:14.003Z,31.48
2018-12-24T01:50:20.786Z,31.61
2018-12-24T01:50:57.285Z,31.65
2018-12-24T01:52:02.133Z,31.75
2018-12-24T01:54:15.103Z,31.92
2018-12-24T01:55:05.885Z,31.92
2018-12-24T01:56:21.164Z,31.94
2018-12-24T01:57:26.205Z,32.03
2018-12-24T01:58:41.438Z,32.13
2018-12-24T02:01:15.311Z,32.19
2018-12-24T02:02:19.428Z,32.32
2018-12-24T02:04:29.959Z,32.44
2018-12-24T02:05:06.634Z,32.34
2018-12-24T02:07:29.757Z,32.29
2018-12-24T02:08:34.739Z,32.45
2018-12-24T02:09:39.638Z,32.48
2018-12-24T02:10:16.439Z,32.56
2018-12-24T02:14:14.095Z,32.62
2018-12-24T02:15:19.081Z,32.66
2018-12-24T02:15:56.122Z,32.68
2018-12-24T02:18:16.325Z,32.66
2018-12-24T02:18:53.096Z,32.58
2018-12-24T02:21:06.025Z,32.48
2018-12-24T02:23:28.707Z,32.44
2018-12-24T02:24:33.814Z,32.55
2018-12-24T02:25:28.876Z,32.65
2018-12-24T02:26:05.704Z,32.73
2018-12-24T02:27:20.698Z,32.77
2018-12-24T02:27:57.486Z,32.79
2018-12-24T02:29:12.647Z,32.81
2018-12-24T02:29:59.477Z,32.85
2018-12-24T02:30:38.399Z,32.91
2018-12-24T02:31:15.236Z,32.94
2018-12-24T02:31:54.327Z,32.96
2018-12-24T02:32:31.332Z,32.99
2018-12-24T02:34:33.196Z,33.04
2018-12-24T02:35:09.811Z,33.05
2018-12-24T02:36:52.795Z,33.10
2018-12-24T02:37:29.392Z,33.14
2018-12-24T02:39:24.578Z,33.19
2018-12-24T02:40:19.499Z,33.25
2018-12-24T02:41:16.011Z,33.29
2018-12-24T02:41:52.724Z,33.30
2018-12-24T02:44:59.021Z,33.40
2018-12-24T02:45:36.062Z,33.42
2018-12-24T02:46:42.591Z,33.35
2018-12-24T02:47:19.344Z,33.31
2018-12-24T02:48:15.923Z,33.25
2018-12-24T02:48:52.986Z,33.19
2018-12-24T02:51:05.382Z,33.15
2018-12-24T02:52:12.036Z,33.12
2018-12-24T02:53:28.571Z,33.13
2018-12-24T02:54:35.155Z,33.15
2018-12-24T02:57:06.460Z,33.15
2018-12-24T02:58:12.150Z,33.11
2018-12-24T02:59:17.161Z,33.11
2018-12-24T03:00:12.389Z,33.13
2018-12-24T03:01:17.283Z,33.18
2018-12-24T03:01:54.186Z,33.12
2018-12-24T03:02:30.756Z,33.02
2018-12-24T03:04:42.640Z,32.96
2018-12-24T03:06:56.246Z,32.78
2018-12-24T03:08:01.119Z,32.75
2018-12-24T03:10:11.659Z,32.99
2018-12-24T03:10:58.103Z,33.12
2018-12-24T03:13:29.471Z,33.26
2018-12-24T03:14:36.135Z,33.33
2018-12-24T03:15:22.900Z,33.41
2018-12-24T03:17:34.389Z,33.47
2018-12-24T03:18:11.418Z,33.54
2018-12-24T03:19:08.142Z,33.59
2018-12-24T03:19:45.110Z,33.63
2018-12-24T03:21:58.556Z,33.73
2018-12-24T03:22:35.342Z,33.82
2018-12-24T03:24:20.289Z,33.86
2018-12-24T03:24:56.856Z,33.89
2018-12-24T03:28:25.363Z,33.92
2018-12-24T03:30:37.288Z,33.95
2018-12-24T03:31:50.804Z,33.98
2018-12-24T03:32:55.809Z,34.03
2018-12-24T03:34:02.767Z,34.04
2018-12-24T03:36:14.414Z,34.06
2018-12-24T03:37:19.320Z,34.10
2018-12-24T03:38:27.582Z,34.16
2018-12-24T03:39:15.119Z,34.14
2018-12-24T03:39:51.829Z,34.06
2018-12-24T03:42:05.816Z,33.82
2018-12-24T03:42:42.781Z,33.71
2018-12-24T03:43:19.764Z,33.63
2018-12-24T03:43:56.419Z,33.59
2018-12-24T03:44:33.179Z,33.55
2018-12-24T03:45:09.799Z,33.53
2018-12-24T03:46:07.586Z,33.53
2018-12-24T03:46:54.488Z,33.59
2018-12-24T03:47:31.430Z,33.68
2018-12-24T03:48:08.358Z,33.76
2018-12-24T03:48:45.108Z,33.82
2018-12-24T03:50:55.227Z,33.90
2018-12-24T03:51:41.964Z,33.93
2018-12-24T03:52:18.737Z,33.98
2018-12-24T03:52:55.368Z,34.01
2018-12-24T03:54:47.064Z,34.06
2018-12-24T03:55:23.819Z,34.08
2018-12-24T03:56:00.363Z,34.08
2018-12-24T03:56:37.109Z,34.06
2018-12-24T03:57:13.834Z,34.07
2018-12-24T03:57:50.464Z,34.09
2018-12-24T03:59:05.517Z,34.10
2018-12-24T03:59:53.408Z,34.13
2018-12-24T04:00:30.248Z,34.13
2018-12-24T04:01:06.912Z,34.13
2018-12-24T04:02:03.252Z,34.15
2018-12-24T04:02:49.975Z,34.14
2018-12-24T04:04:54.888Z,34.10
2018-12-24T04:05:31.479Z,34.09
2018-12-24T04:06:08.085Z,34.06
2018-12-24T04:06:44.800Z,34.09
2018-12-24T04:07:21.370Z,34.10
2018-12-24T04:07:58.090Z,34.08
2018-12-24T04:08:34.624Z,34.10
2018-12-24T04:09:11.243Z,34.10
2018-12-24T04:10:12.421Z,34.13
2018-12-24T04:10:49.143Z,34.12
2018-12-24T04:11:25.814Z,34.13
2018-12-24T04:12:02.483Z,34.14
2018-12-24T04:12:39.320Z,34.12
2018-12-24T04:13:52.731Z,34.15
2018-12-24T04:14:57.539Z,34.10
2018-12-24T04:15:34.288Z,34.16
2018-12-24T04:16:10.963Z,34.17
2018-12-24T04:16:47.767Z,34.20
2018-12-24T04:17:24.289Z,34.20
2018-12-24T04:18:00.974Z,34.21
2018-12-24T04:18:37.554Z,34.21
2018-12-24T04:19:14.138Z,34.20
2018-12-24T04:20:10.869Z,34.21
2018-12-24T04:21:24.303Z,34.21
2018-12-24T04:22:01.231Z,34.18
2018-12-24T04:22:38.065Z,34.13
2018-12-24T04:23:15.015Z,34.10
2018-12-24T04:26:42.109Z,34.13
2018-12-24T04:27:48.690Z,34.14
2018-12-24T04:28:25.244Z,34.16
2018-12-24T04:29:40.182Z,34.19
2018-12-24T04:30:35.377Z,34.21
2018-12-24T04:32:46.656Z,34.12
2018-12-24T04:33:53.675Z,34.14
2018-12-24T04:34:48.596Z,34.09
2018-12-24T04:35:25.110Z,34.12
2018-12-24T04:36:31.567Z,34.14
2018-12-24T04:37:37.925Z,34.17
2018-12-24T04:38:51.708Z,34.16
2018-12-24T04:39:28.700Z,34.13
2018-12-24T04:40:07.893Z,34.11
2018-12-24T04:40:44.819Z,34.11
2018-12-24T04:41:59.934Z,34.11
2018-12-24T04:43:04.771Z,34.13
2018-12-24T04:44:09.688Z,34.10
2018-12-24T04:45:14.648Z,34.08
2018-12-24T04:46:27.683Z,34.05
2018-12-24T04:47:32.529Z,34.07
2018-12-24T04:50:03.791Z,34.03
2018-12-24T04:51:08.727Z,34.08
2018-12-24T04:52:13.595Z,34.09
2018-12-24T04:53:19.968Z,34.05
2018-12-24T04:53:56.592Z,34.00
2018-12-24T04:54:33.351Z,33.99
2018-12-24T04:55:10.006Z,33.98
2018-12-24T04:55:46.668Z,33.99
2018-12-24T04:56:23.332Z,34.02
2018-12-24T04:57:00.014Z,34.02
2018-12-24T04:58:14.921Z,34.03
2018-12-24T05:00:19.090Z,34.13
2018-12-24T05:01:25.797Z,34.13
2018-12-24T05:02:05.912Z,34.12
2018-12-24T05:03:12.769Z,34.13
2018-12-24T05:06:05.713Z,34.19
2018-12-24T05:06:42.435Z,34.19
2018-12-24T05:07:57.459Z,34.13
2018-12-24T05:09:19.864Z,34.10
2018-12-24T05:10:08.383Z,34.03
2018-12-24T05:12:21.466Z,34.01
2018-12-24T05:14:07.923Z,34.02
2018-12-24T05:14:59.626Z,33.99
2018-12-24T05:16:05.079Z,34.06
2018-12-24T05:16:41.903Z,34.12
2018-12-24T05:19:15.349Z,34.20
2018-12-24T05:21:34.990Z,34.25
2018-12-24T05:22:39.878Z,34.27
2018-12-24T05:23:16.616Z,34.30
2018-12-24T05:23:53.303Z,34.25
2018-12-24T05:24:29.995Z,34.28
2018-12-24T05:25:06.652Z,34.29
2018-12-24T05:25:43.203Z,34.29
2018-12-24T05:28:11.668Z,34.32
2018-12-24T05:29:16.556Z,34.34
2018-12-24T05:31:22.574Z,34.26
2018-12-24T05:32:27.462Z,34.29
2018-12-24T05:33:32.388Z,34.30
2018-12-24T05:34:37.266Z,34.33
2018-12-24T05:35:43.600Z,34.37
2018-12-24T05:36:48.493Z,34.40
2018-12-24T05:37:53.401Z,34.42
2018-12-24T05:38:58.284Z,34.43
2018-12-24T05:40:03.201Z,34.43
2018-12-24T05:41:08.126Z,34.45
2018-12-24T05:41:55.056Z,34.44
2018-12-24T05:43:08.346Z,34.41
2018-12-24T05:44:21.468Z,34.46
2018-12-24T05:45:26.347Z,34.47
2018-12-24T05:46:31.252Z,34.44
2018-12-24T05:50:10.404Z,34.37
2018-12-24T05:51:15.377Z,34.28
2018-12-24T05:52:30.514Z,34.32
2018-12-24T05:53:36.444Z,34.33
2018-12-24T05:55:56.675Z,34.37
2018-12-24T05:57:01.583Z,34.38
2018-12-24T05:58:06.488Z,34.41
2018-12-24T05:59:19.603Z,34.45
2018-12-24T06:00:24.535Z,34.44
2018-12-24T06:02:55.784Z,34.43
2018-12-24T06:04:00.733Z,34.39
2018-12-24T06:05:05.638Z,34.43
2018-12-24T06:06:10.558Z,34.44
2018-12-24T06:08:20.895Z,34.45
2018-12-24T06:09:25.855Z,34.43
2018-12-24T06:10:30.811Z,34.43
2018-12-24T06:11:43.914Z,34.39
2018-12-24T06:12:57.249Z,34.42
2018-12-24T06:14:12.207Z,34.42
2018-12-24T06:15:18.757Z,34.41
2018-12-24T06:15:55.338Z,34.43
2018-12-24T06:18:07.784Z,34.39
2018-12-24T06:19:12.659Z,34.32
2018-12-24T06:20:26.012Z,34.34
2018-12-24T06:21:40.987Z,34.36
2018-12-24T06:22:45.880Z,34.32
2018-12-24T06:23:50.758Z,34.35
2018-12-24T06:25:06.047Z,34.39
2018-12-24T06:27:17.294Z,34.44
2018-12-24T06:28:23.438Z,34.39
2018-12-24T06:30:15.322Z,34.47
2018-12-24T06:31:21.499Z,34.49
2018-12-24T06:32:26.362Z,34.45
2018-12-24T06:33:39.783Z,34.41
2018-12-24T06:34:44.687Z,34.34
2018-12-24T06:35:58.126Z,34.41
2018-12-24T06:37:02.856Z,34.42
2018-12-24T06:39:21.126Z,34.41
2018-12-24T06:40:34.559Z,34.37
2018-12-24T06:45:16.613Z,34.29
2018-12-24T06:46:21.536Z,34.31
2018-12-24T06:47:26.505Z,34.32
2018-12-24T06:48:31.375Z,34.29
2018-12-24T06:49:44.651Z,34.30
2018-12-24T06:50:21.275Z,34.31
2018-12-24T06:51:16.645Z,34.30
2018-12-24T06:53:49.605Z,34.28
2018-12-24T06:54:54.478Z,34.30
2018-12-24T06:57:28.028Z,34.34
2018-12-24T06:58:32.943Z,34.36
2018-12-24T06:59:37.765Z,34.41
2018-12-24T07:02:04.698Z,34.42
2018-12-24T07:04:39.442Z,34.35
2018-12-24T07:05:52.509Z,34.35
2018-12-24T07:07:05.803Z,34.38
2018-12-24T07:08:10.669Z,34.36
2018-12-24T07:09:16.035Z,34.36
2018-12-24T07:10:29.388Z,34.38
2018-12-24T07:11:34.205Z,34.34
2018-12-24T07:12:31.174Z,34.30
2018-12-24T07:14:42.406Z,34.29
2018-12-24T07:15:47.359Z,34.28
2018-12-24T07:17:00.752Z,34.29
2018-12-24T07:18:05.699Z,34.27
2018-12-24T07:19:10.562Z,34.24
2018-12-24T07:20:15.483Z,34.27
2018-12-24T07:24:14.506Z,34.31
2018-12-24T07:25:19.414Z,34.36
2018-12-24T07:26:25.931Z,34.40
2018-12-24T07:27:30.804Z,34.44
2018-12-24T07:28:44.148Z,34.48
2018-12-24T07:31:15.357Z,34.53
2018-12-24T07:33:26.868Z,34.38
2018-12-24T07:34:32.541Z,34.41
2018-12-24T07:38:17.899Z,34.44
2018-12-24T07:39:24.729Z,34.42
2018-12-24T07:40:29.649Z,34.38
2018-12-24T07:41:43.005Z,34.34
2018-12-24T07:42:47.887Z,34.34
2018-12-24T07:46:05.886Z,34.21
2018-12-24T07:47:10.784Z,34.22
2018-12-24T07:48:15.788Z,34.25
2018-12-24T07:49:22.745Z,34.28
2018-12-24T07:50:36.151Z,34.28
2018-12-24T07:51:12.816Z,34.32
2018-12-24T07:51:59.502Z,34.31
2018-12-24T07:53:14.666Z,34.28
2018-12-24T07:55:42.915Z,34.25
2018-12-24T07:56:39.965Z,34.21
2018-12-24T07:57:44.777Z,34.20
2018-12-24T08:00:23.008Z,34.15
2018-12-24T08:05:15.206Z,34.14
2018-12-24T08:06:20.148Z,34.15
2018-12-24T08:07:25.045Z,34.20
2018-12-24T08:08:38.446Z,34.18
2018-12-24T08:09:43.361Z,34.16
2018-12-24T08:12:14.445Z,34.13
2018-12-24T08:13:19.452Z,34.11
2018-12-24T08:14:32.719Z,34.10
2018-12-24T08:16:37.737Z,34.16
2018-12-24T08:20:36.330Z,34.11
2018-12-24T08:22:38.039Z,34.01
2018-12-24T08:24:37.371Z,33.88
2018-12-24T08:25:44.235Z,33.88
2018-12-24T08:26:52.310Z,33.83
2018-12-24T08:27:55.778Z,33.79
2018-12-24T08:29:00.708Z,33.79
2018-12-24T08:30:05.611Z,33.74
2018-12-24T08:31:19.056Z,33.65
2018-12-24T08:31:55.683Z,33.60
2018-12-24T08:33:10.629Z,33.58
2018-12-24T08:34:23.828Z,33.56
2018-12-24T08:38:21.350Z,33.45
2018-12-24T08:39:16.531Z,33.37
2018-12-24T08:40:29.943Z,33.36
2018-12-24T08:41:34.901Z,33.35
2018-12-24T08:42:41.101Z,33.27
2018-12-24T08:43:46.061Z,33.19
2018-12-24T08:44:52.311Z,33.14
2018-12-24T08:45:57.197Z,33.08
2018-12-24T08:47:10.636Z,33.10
2018-12-24T08:48:24.107Z,33.08
2018-12-24T08:49:02.722Z,33.02
2018-12-24T08:51:12.978Z,33.02
2018-12-24T08:52:17.953Z,33.01
2018-12-24T08:54:36.405Z,33.01
2018-12-24T08:57:09.313Z,32.98
2018-12-24T08:58:15.882Z,32.98
2018-12-24T08:59:20.804Z,32.97
2018-12-24T09:01:41.101Z,32.97
2018-12-24T09:05:20.646Z,32.97
2018-12-24T09:06:25.505Z,32.91
2018-12-24T09:08:37.012Z,32.83
2018-12-24T09:09:41.915Z,32.80
2018-12-24T09:10:46.885Z,32.74
2018-12-24T09:12:01.916Z,32.73
2018-12-24T09:13:06.843Z,32.71
2018-12-24T09:14:11.789Z,32.68
2018-12-24T09:15:16.955Z,32.67
2018-12-24T09:16:32.122Z,32.66
2018-12-24T09:18:45.471Z,32.61
2018-12-24T09:20:56.738Z,32.48
2018-12-24T09:22:10.123Z,32.44
2018-12-24T09:23:15.056Z,32.41
2018-12-24T09:25:43.714Z,32.27
2018-12-24T09:26:20.290Z,32.23
2018-12-24T09:26:56.900Z,32.17
2018-12-24T09:27:33.662Z,32.12
2018-12-24T09:28:10.393Z,32.11
2018-12-24T09:28:47.022Z,32.09
2018-12-24T09:29:23.436Z,32.05
2018-12-24T09:30:00.042Z,32.03
2018-12-24T09:30:37.263Z,31.98
2018-12-24T09:31:14.595Z,31.96
2018-12-24T09:31:51.335Z,31.96
2018-12-24T09:32:29.144Z,31.91
2018-12-24T09:33:05.759Z,31.88
2018-12-24T09:33:43.806Z,31.86
2018-12-24T09:34:20.370Z,31.85
2018-12-24T09:34:57.325Z,31.88
2018-12-24T09:36:12.229Z,31.86
2018-12-24T09:37:17.153Z,31.86
2018-12-24T09:38:22.058Z,31.87
2018-12-24T09:39:37.199Z,31.87
2018-12-24T09:40:16.928Z,31.88
2018-12-24T09:42:36.858Z,31.86
2018-12-24T09:43:41.789Z,31.82
2018-12-24T09:44:58.940Z,31.76
2018-12-24T09:46:01.680Z,31.70
2018-12-24T09:47:06.593Z,31.68
2018-12-24T09:48:11.555Z,31.67
2018-12-24T09:50:49.856Z,31.67
2018-12-24T09:51:36.763Z,31.56
2018-12-24T09:53:49.563Z,31.49
2018-12-24T09:55:02.966Z,31.47
2018-12-24T09:55:49.382Z,31.52
2018-12-24T09:57:04.531Z,31.52
2018-12-24T09:58:19.698Z,31.53
2018-12-24T10:00:29.871Z,31.54
2018-12-24T10:01:16.172Z,31.48
2018-12-24T10:03:50.955Z,31.53
2018-12-24T10:04:59.160Z,31.53
2018-12-24T10:06:15.220Z,31.53
2018-12-24T10:07:25.272Z,31.60
2018-12-24T10:08:13.131Z,31.59
2018-12-24T10:09:26.163Z,31.59
2018-12-24T10:14:29.315Z,31.68
2018-12-24T10:18:30.949Z,31.56
2018-12-24T10:19:35.875Z,31.53
2018-12-24T10:22:07.602Z,31.48
2018-12-24T10:23:12.482Z,31.49
2018-12-24T10:23:59.577Z,31.48
2018-12-24T10:26:30.775Z,31.43
2018-12-24T10:27:35.651Z,31.43
2018-12-24T10:28:40.614Z,31.37
2018-12-24T10:29:27.542Z,31.36
2018-12-24T10:30:13.922Z,31.33
2018-12-24T10:31:00.597Z,31.34
2018-12-24T10:33:33.697Z,31.37
2018-12-24T10:34:38.637Z,31.31
2018-12-24T10:35:43.577Z,31.28
2018-12-24T10:36:29.877Z,31.19
2018-12-24T10:39:03.019Z,31.17
2018-12-24T10:39:50.035Z,31.10
2018-12-24T10:41:03.079Z,31.10
2018-12-24T10:42:07.955Z,31.10
2018-12-24T10:44:39.177Z,30.99
2018-12-24T10:45:43.952Z,30.85
2018-12-24T10:47:26.356Z,30.86
2018-12-24T10:48:31.331Z,30.76
2018-12-24T10:49:36.299Z,30.76
2018-12-24T10:51:49.183Z,30.87
2018-12-24T10:53:02.582Z,30.87
2018-12-24T10:53:39.264Z,30.88
2018-12-24T10:54:16.035Z,30.87
2018-12-24T10:54:52.685Z,30.87
2018-12-24T10:56:46.089Z,30.80
2018-12-24T10:57:22.775Z,30.80
2018-12-24T10:58:17.709Z,30.74
2018-12-24T10:59:24.329Z,30.76
2018-12-24T11:00:00.893Z,30.76
2018-12-24T11:02:29.431Z,30.74
2018-12-24T11:05:00.653Z,30.71
2018-12-24T11:06:07.872Z,30.71
2018-12-24T11:06:55.939Z,30.69
2018-12-24T11:07:42.669Z,30.70
2018-12-24T11:08:47.593Z,30.70
2018-12-24T11:09:52.517Z,30.67
2018-12-24T11:10:39.498Z,30.62
2018-12-24T11:11:25.869Z,30.63
2018-12-24T11:15:10.387Z,30.63
2018-12-24T11:15:57.632Z,30.55
2018-12-24T11:16:43.986Z,30.63
2018-12-24T11:17:30.625Z,30.62
2018-12-24T11:18:26.999Z,30.62
2018-12-24T11:19:03.485Z,30.62
2018-12-24T11:19:49.936Z,30.56
2018-12-24T11:22:24.242Z,30.62
2018-12-24T11:23:29.128Z,30.59
2018-12-24T11:24:15.894Z,30.58
2018-12-24T11:25:30.890Z,30.58
2018-12-24T11:26:37.574Z,30.57
2018-12-24T11:27:52.510Z,30.57
2018-12-24T11:29:05.855Z,30.53
2018-12-24T11:31:37.061Z,30.52
2018-12-24T11:32:43.429Z,30.52
2018-12-24T11:33:30.496Z,30.51
2018-12-24T11:34:17.081Z,30.51
2018-12-24T11:35:03.792Z,30.53
2018-12-24T11:36:17.191Z,30.53
2018-12-24T11:37:03.597Z,30.52
2018-12-24T11:38:19.830Z,30.52
2018-12-24T11:39:25.743Z,30.46
2018-12-24T11:40:12.673Z,30.52
2018-12-24T11:40:49.660Z,30.53
2018-12-24T11:41:44.639Z,30.55
2018-12-24T11:42:39.635Z,30.57
2018-12-24T11:43:34.524Z,30.57
2018-12-24T11:44:11.403Z,30.59
2018-12-24T11:45:06.378Z,30.59
2018-12-24T11:45:44.851Z,30.50
2018-12-24T11:46:50.948Z,30.54
2018-12-24T11:47:38.866Z,30.53
2018-12-24T11:48:15.612Z,30.59
2018-12-24T11:50:05.842Z,30.58
2018-12-24T11:50:52.394Z,30.51
2018-12-24T11:51:32.229Z,30.51
2018-12-24T11:52:28.240Z,30.51
2018-12-24T11:54:02.580Z,30.46
2018-12-24T11:54:39.311Z,30.46
2018-12-24T11:56:25.510Z,30.51
2018-12-24T11:57:02.377Z,30.49
2018-12-24T11:59:10.399Z,30.43
2018-12-24T11:59:47.267Z,30.44
2018-12-24T12:00:53.596Z,30.44
2018-12-24T12:01:40.691Z,30.43
2018-12-24T12:02:17.321Z,30.34
2018-12-24T12:02:54.320Z,30.34
2018-12-24T12:03:35.163Z,30.36
2018-12-24T12:04:52.244Z,30.26
2018-12-24T12:05:28.966Z,30.26
2018-12-24T12:07:59.268Z,30.16
2018-12-24T12:08:55.812Z,30.03
2018-12-24T12:09:32.543Z,30.03
2018-12-24T12:11:37.682Z,29.85
2018-12-24T12:12:14.250Z,29.69
2018-12-24T12:13:22.486Z,29.62
2018-12-24T12:14:35.600Z,29.55
2018-12-24T12:15:13.676Z,29.46
2018-12-24T12:16:10.047Z,29.41
2018-12-24T12:16:46.682Z,29.41
2018-12-24T12:17:23.503Z,29.41
2018-12-24T12:18:01.432Z,29.41
2018-12-24T12:18:38.322Z,29.41
2018-12-24T12:19:14.938Z,29.41
2018-12-24T12:20:30.116Z,29.39
2018-12-24T12:21:07.185Z,29.39
2018-12-24T12:22:21.597Z,29.38
2018-12-24T12:24:09.209Z,29.35
2018-12-24T12:24:48.267Z,29.35
2018-12-24T12:25:24.887Z,29.34
2018-12-24T12:26:31.369Z,29.34
2018-12-24T12:27:18.349Z,29.26
2018-12-24T12:27:55.135Z,29.26
2018-12-24T12:30:08.682Z,29.23
2018-12-24T12:30:45.531Z,29.22
2018-12-24T12:31:52.202Z,29.19
2018-12-24T12:32:58.634Z,29.15
2018-12-24T12:34:04.342Z,29.10
2018-12-24T12:36:17.543Z,29.05
2018-12-24T12:38:01.764Z,29.02
2018-12-24T12:38:38.461Z,29.04
2018-12-24T12:39:15.389Z,29.05
2018-12-24T12:39:51.936Z,29.07
2018-12-24T12:40:28.708Z,29.04
2018-12-24T12:41:05.422Z,29.04
2018-12-24T12:41:42.178Z,29.06
2018-12-24T12:42:18.927Z,29.06
2018-12-24T12:43:24.750Z,29.05
2018-12-24T12:44:38.173Z,29.06
2018-12-24T12:45:51.188Z,29.05
2018-12-24T12:48:37.338Z,29.05
2018-12-24T12:50:31.953Z,29.04
2018-12-24T12:51:08.766Z,29.00
2018-12-24T12:52:15.909Z,28.96
2018-12-24T12:53:31.106Z,28.95
2018-12-24T12:54:10.475Z,28.93
2018-12-24T12:55:17.038Z,28.90
2018-12-24T12:57:02.289Z,28.89
2018-12-24T12:57:39.072Z,28.88
2018-12-24T13:01:10.500Z,28.85
2018-12-24T13:01:50.162Z,28.82
2018-12-24T13:02:56.414Z,28.81
2018-12-24T13:03:33.310Z,28.77
2018-12-24T13:04:11.414Z,28.75
2018-12-24T13:06:35.675Z,28.74
2018-12-24T13:08:21.481Z,28.76
2018-12-24T13:08:58.355Z,28.78
2018-12-24T13:09:36.752Z,28.79
2018-12-24T13:12:32.869Z,28.80
2018-12-24T13:13:09.676Z,28.80
2018-12-24T13:13:46.622Z,28.78
2018-12-24T13:14:52.311Z,28.77
2018-12-24T13:15:29.123Z,28.76
2018-12-24T13:17:42.037Z,28.76
2018-12-24T13:18:18.730Z,28.76
2018-12-24T13:21:00.974Z,28.77
2018-12-24T13:22:14.390Z,28.73
2018-12-24T13:22:51.205Z,28.70
2018-12-24T13:24:04.546Z,28.68
2018-12-24T13:24:41.291Z,28.68
2018-12-24T13:26:28.235Z,28.65
2018-12-24T13:27:06.919Z,28.63
2018-12-24T13:27:43.399Z,28.62
2018-12-24T13:28:20.093Z,28.63
2018-12-24T13:28:59.622Z,28.64
2018-12-24T13:29:38.811Z,28.64
2018-12-24T13:30:15.725Z,28.66
2018-12-24T13:30:52.303Z,28.67
2018-12-24T13:31:29.090Z,28.67
2018-12-24T13:32:08.728Z,28.68
2018-12-24T13:33:14.666Z,28.69
2018-12-24T13:33:51.482Z,28.69
2018-12-24T13:35:36.003Z,28.69
2018-12-24T13:36:12.776Z,28.68
2018-12-24T13:36:49.585Z,28.68
2018-12-24T13:37:26.238Z,28.66
2018-12-24T13:38:03.062Z,28.68
2018-12-24T13:38:39.884Z,28.67
2018-12-24T13:39:53.359Z,28.68
2018-12-24T13:41:06.786Z,28.67
2018-12-24T13:42:57.484Z,28.64
2018-12-24T13:44:15.533Z,28.63
2018-12-24T13:44:53.983Z,28.63
2018-12-24T13:45:30.790Z,28.62
2018-12-24T13:47:44.085Z,28.64
2018-12-24T13:48:21.029Z,28.62
2018-12-24T13:50:25.175Z,28.62
2018-12-24T13:55:24.667Z,28.57
2018-12-24T13:59:02.860Z,28.53
2018-12-24T13:59:41.295Z,28.51
2018-12-24T14:00:18.174Z,28.52
2018-12-24T14:00:55.797Z,28.54
2018-12-24T14:02:01.648Z,28.54
2018-12-24T14:02:38.220Z,28.56
2018-12-24T14:03:44.669Z,28.54
2018-12-24T14:04:49.599Z,28.56
2018-12-24T14:05:26.177Z,28.56
2018-12-24T14:06:41.136Z,28.56
2018-12-24T14:07:18.835Z,28.55
2018-12-24T14:07:55.593Z,28.54
2018-12-24T14:08:32.433Z,28.54
2018-12-24T14:09:49.362Z,28.55
2018-12-24T14:10:25.915Z,28.56
2018-12-24T14:11:22.378Z,28.53
2018-12-24T14:12:37.354Z,28.55
2018-12-24T14:13:13.994Z,28.56
2018-12-24T14:13:50.808Z,28.56
2018-12-24T14:15:05.697Z,28.56
2018-12-24T14:15:42.279Z,28.57
2018-12-24T14:16:18.878Z,28.55
2018-12-24T14:17:15.657Z,28.54
2018-12-24T14:18:22.257Z,28.52
2018-12-24T14:18:58.790Z,28.51
2018-12-24T14:19:35.498Z,28.50
2018-12-24T14:20:12.051Z,28.49
2018-12-24T14:21:27.113Z,28.50
2018-12-24T14:23:47.255Z,28.45
2018-12-24T14:26:01.004Z,28.38
2018-12-24T14:27:07.598Z,28.34
2018-12-24T14:27:44.081Z,28.30
2018-12-24T14:28:20.794Z,28.27
2018-12-24T14:29:35.878Z,28.28
2018-12-24T14:30:15.003Z,28.28
2018-12-24T14:30:51.680Z,28.26
2018-12-24T14:32:33.660Z,28.24
2018-12-24T14:33:10.248Z,28.23
2018-12-24T14:33:46.821Z,28.23
2018-12-24T14:34:23.518Z,28.22
2018-12-24T14:35:00.342Z,28.21
2018-12-24T14:35:37.101Z,28.21
2018-12-24T14:36:33.419Z,28.21
2018-12-24T14:37:10.078Z,28.19
2018-12-24T14:37:46.619Z,28.19
2018-12-24T14:38:23.316Z,28.19
2018-12-24T14:39:20.191Z,28.20
2018-12-24T14:41:13.237Z,28.19
2018-12-24T14:41:50.015Z,28.19
2018-12-24T14:42:26.603Z,28.20
2018-12-24T14:43:03.396Z,28.20
2018-12-24T14:43:40.250Z,28.21
2018-12-24T14:44:45.131Z,28.22
2018-12-24T14:45:40.283Z,28.23
2018-12-24T14:46:40.868Z,28.23
2018-12-24T14:48:43.946Z,28.23
2018-12-24T14:49:48.739Z,28.21
2018-12-24T14:51:41.584Z,28.23
2018-12-24T14:52:18.401Z,28.24
2018-12-24T14:53:25.050Z,28.24
2018-12-24T14:54:29.872Z,28.24
2018-12-24T14:55:32.277Z,28.25
2018-12-24T14:56:09.170Z,28.24
2018-12-24T14:56:45.861Z,28.26
2018-12-24T15:00:22.164Z,28.28
2018-12-24T15:00:58.621Z,28.27
2018-12-24T15:04:38.386Z,28.26
2018-12-24T15:05:25.090Z,28.25
2018-12-24T15:06:11.784Z,28.24
2018-12-24T15:07:54.829Z,28.26
2018-12-24T15:08:31.394Z,28.26
2018-12-24T15:10:24.480Z,28.24
2018-12-24T15:11:01.010Z,28.25
2018-12-24T15:12:07.360Z,28.25
2018-12-24T15:13:03.784Z,28.26